Anna II — SW7403 — position and weather

sailwx.info

Track history (hours):
 
Tides and Currents Weather Stations Pressure Air Temp Water Temp Dewpoint Dewpoint Depression Visibility Wind Speed Wind Dir Waves Ship Positions

Anna II

Last reported at 2017-Oct-27 12:22 UTC. Time now 2017-Dec-11 09:46 UTC.
Position N 37°30' E 023°26'.
Warning: this ship's position is 44 days out of date.

Length 31 m; draft 2.5 m.

Type: Ship. MMSI: 237019100.

Date/timePositionNaut miles runAvg speedWind from/ knotsBaromVisibWave heightAir tempDewpointWater temp
2017-Oct-27 12:22N 37°30' E 023°26'510.2
2017-Oct-27 11:55N 37°35' E 023°25'410.6
2017-Oct-27 11:30N 37°39' E 023°23'610.5
2017-Oct-27 10:56N 37°43' E 023°17'  
2017-Oct-24 16:05N 37°54' E 023°01'0 0.9
2017-Oct-24 16:00N 37°54' E 023°01'3 6.6
2017-Oct-24 15:30N 37°57' E 022°58'3 6.9
2017-Oct-24 15:00N 37°54' E 023°01'4 8.3
2017-Oct-24 14:30N 37°52' E 023°05'510.0
2017-Oct-24 14:00N 37°49' E 023°11'5 9.9
2017-Oct-24 13:30N 37°47' E 023°16'5 9.9
2017-Oct-24 13:00N 37°44' E 023°21'2 0.8
2017-Oct-24 11:07N 37°42' E 023°22'1 4.7
2017-Oct-24 11:00N 37°43' E 023°23'3 1.1
2017-Oct-24 08:09N 37°45' E 023°26'1 4.3
2017-Oct-24 08:00N 37°45' E 023°25'5 9.6
2017-Oct-24 07:26N 37°47' E 023°19'4 9.7
2017-Oct-24 07:00N 37°50' E 023°14'5 9.8
2017-Oct-24 06:30N 37°52' E 023°09'5 9.8
2017-Oct-24 06:00N 37°54' E 023°03'2 1.9
2017-Oct-24 05:05N 37°54' E 023°01'0 0.0
2017-Oct-24 05:01N 37°54' E 023°01'0 0.0
2017-Oct-23 18:28N 37°54' E 023°01'2 4.9
2017-Oct-23 18:00N 37°55' E 023°04'4 7.0
2017-Oct-23 17:30N 37°55' E 023°08'4 6.9
2017-Oct-23 17:00N 37°57' E 023°12'1 1.9
2017-Oct-23 16:30N 37°57' E 023°13'5 9.9
2017-Oct-23 15:59N 37°53' E 023°16'5 9.8
2017-Oct-23 15:30N 37°48' E 023°18'5 9.7
2017-Oct-23 15:00N 37°44' E 023°21'2 1.5
2017-Oct-23 13:56N 37°42' E 023°22'4 8.9
2017-Oct-23 13:30N 37°39' E 023°24'5 9.9
2017-Oct-23 12:56N 37°34' E 023°25'4 1.6
2017-Oct-23 10:26N 37°30' E 023°27'4 8.0
2017-Oct-23 10:00N 37°33' E 023°25'5 9.7
2017-Oct-23 09:30N 37°38' E 023°25'5 9.8
2017-Oct-23 09:00N 37°43' E 023°25'2 3.7
2017-Oct-23 08:30N 37°45' E 023°26'0 0.0
2017-Oct-23 06:54N 37°45' E 023°26'3 8.6
2017-Oct-23 06:30N 37°47' E 023°23'5 9.8
2017-Oct-23 05:59N 37°51' E 023°19'5 9.7
2017-Oct-23 05:30N 37°55' E 023°15'3 6.8
2017-Oct-23 05:00N 37°58' E 023°13'0 0.0
2017-Oct-23 04:31N 37°58' E 023°13'0 0.0
2017-Oct-22 16:24N 37°58' E 023°13'1 3.0
2017-Oct-22 16:01N 37°57' E 023°12'5 9.2
2017-Oct-22 15:31N 37°55' E 023°06'4 8.8
2017-Oct-22 15:01N 37°55' E 023°01'3 6.8
2017-Oct-22 14:30N 37°57' E 022°58'3 5.8
2017-Oct-22 14:00N 37°55' E 023°00'2 5.0
2017-Oct-22 13:31N 37°55' E 023°03'4 8.7
2017-Oct-22 13:00N 37°55' E 023°09'6 0.2
2017-Oct-21 09:06N 37°54' E 023°01'0 1.0
2017-Oct-21 09:00N 37°54' E 023°01'1 0.8
2017-Oct-21 07:55N 37°55' E 023°00'1 0.1
2017-Oct-20 16:10N 37°54' E 023°01'0 3.1
2017-Oct-20 16:00N 37°55' E 023°01'0 0.5
2017-Oct-20 15:16N 37°55' E 023°00'0 1.4
2017-Oct-20 15:01N 37°55' E 023°01'5 9.4
2017-Oct-20 14:30N 37°52' E 023°06'10 9.7
2017-Oct-20 13:30N 37°47' E 023°16'5 9.8
2017-Oct-20 13:00N 37°44' E 023°21'2 0.9
2017-Oct-20 11:05N 37°42' E 023°22'0 3.2
2017-Oct-20 11:00N 37°43' E 023°22'3 6.7
2017-Oct-20 10:30N 37°45' E 023°26'0 0.0
2017-Oct-20 08:16N 37°45' E 023°26'1 3.1
2017-Oct-20 08:00N 37°45' E 023°25'5 9.8
2017-Oct-20 07:30N 37°47' E 023°19'5 9.9
2017-Oct-20 07:00N 37°50' E 023°14'510.0
2017-Oct-20 06:30N 37°52' E 023°08'5 9.9
2017-Oct-20 06:01N 37°54' E 023°02'1 1.5
2017-Oct-20 05:12N 37°54' E 023°01'0 0.0
2017-Oct-19 19:29N 37°54' E 023°01'3 5.3
2017-Oct-19 19:00N 37°55' E 023°04'4 7.3
2017-Oct-19 18:30N 37°55' E 023°09'4 7.3
2017-Oct-19 17:59N 37°57' E 023°12'0 0.9
2017-Oct-19 17:29N 37°57' E 023°12'4 9.2
2017-Oct-19 17:00N 37°53' E 023°09'6 9.3
2017-Oct-19 16:25N 37°52' E 023°16'4 9.7
2017-Oct-19 16:00N 37°48' E 023°18'5 9.9
2017-Oct-19 15:30N 37°44' E 023°21'2 3.5
2017-Oct-19 15:00N 37°42' E 023°22'0 0.0
2017-Oct-19 14:30N 37°42' E 023°22'4 7.8
2017-Oct-19 13:59N 37°39' E 023°24'6 9.7
2017-Oct-19 13:20N 37°33' E 023°25'3 1.4
2017-Oct-19 11:12N 37°30' E 023°27'0 0.0
2017-Oct-19 10:57N 37°30' E 023°27'2 4.0
2017-Oct-19 10:30N 37°31' E 023°25'6 9.9
2017-Oct-19 09:52N 37°37' E 023°25'410.0
2017-Oct-19 09:30N 37°41' E 023°25'4 7.7
2017-Oct-19 09:00N 37°45' E 023°26'0 0.0
2017-Oct-19 06:56N 37°45' E 023°26'5 7.3
2017-Oct-19 06:19N 37°48' E 023°22'310.1
2017-Oct-19 06:00N 37°51' E 023°19'510.1
2017-Oct-19 05:30N 37°55' E 023°16'4 7.7
2017-Oct-19 05:00N 37°58' E 023°13'0 0.9
2017-Oct-19 04:30N 37°57' E 023°13'3 6.7
2017-Oct-19 04:00N 37°55' E 023°09'3 6.9
2017-Oct-19 03:30N 37°55' E 023°05'  
Track history (hours):
 
Tides and Currents Weather Stations Pressure Air Temp Water Temp Dewpoint Dewpoint Depression Visibility Wind Speed Wind Dir Waves Ship Positions

Anna II

Last reported at 2017-Oct-27 12:22 UTC. Time now 2017-Dec-11 09:46 UTC.
Position N 37°30' E 023°26'.
Warning: this ship's position is 44 days out of date.

Length 31 m; draft 2.5 m.

Type: Ship. MMSI: 237019100.

Date/timePositionNaut miles runAvg speedWind from/ knotsBaromVisibWave heightAir tempDewpointWater temp
2017-Oct-27 12:22N 37°30' E 023°26'510.2
2017-Oct-27 11:55N 37°35' E 023°25'410.6
2017-Oct-27 11:30N 37°39' E 023°23'610.5
2017-Oct-27 10:56N 37°43' E 023°17'  
2017-Oct-24 16:05N 37°54' E 023°01'0 0.9
2017-Oct-24 16:00N 37°54' E 023°01'3 6.6
2017-Oct-24 15:30N 37°57' E 022°58'3 6.9
2017-Oct-24 15:00N 37°54' E 023°01'4 8.3
2017-Oct-24 14:30N 37°52' E 023°05'510.0
2017-Oct-24 14:00N 37°49' E 023°11'5 9.9
2017-Oct-24 13:30N 37°47' E 023°16'5 9.9
2017-Oct-24 13:00N 37°44' E 023°21'2 0.8
2017-Oct-24 11:07N 37°42' E 023°22'1 4.7
2017-Oct-24 11:00N 37°43' E 023°23'3 1.1
2017-Oct-24 08:09N 37°45' E 023°26'1 4.3
2017-Oct-24 08:00N 37°45' E 023°25'5 9.6
2017-Oct-24 07:26N 37°47' E 023°19'4 9.7
2017-Oct-24 07:00N 37°50' E 023°14'5 9.8
2017-Oct-24 06:30N 37°52' E 023°09'5 9.8
2017-Oct-24 06:00N 37°54' E 023°03'2 1.9
2017-Oct-24 05:05N 37°54' E 023°01'0 0.0
2017-Oct-24 05:01N 37°54' E 023°01'0 0.0
2017-Oct-23 18:28N 37°54' E 023°01'2 4.9
2017-Oct-23 18:00N 37°55' E 023°04'4 7.0
2017-Oct-23 17:30N 37°55' E 023°08'4 6.9
2017-Oct-23 17:00N 37°57' E 023°12'1 1.9
2017-Oct-23 16:30N 37°57' E 023°13'5 9.9
2017-Oct-23 15:59N 37°53' E 023°16'5 9.8
2017-Oct-23 15:30N 37°48' E 023°18'5 9.7
2017-Oct-23 15:00N 37°44' E 023°21'2 1.5
2017-Oct-23 13:56N 37°42' E 023°22'4 8.9
2017-Oct-23 13:30N 37°39' E 023°24'5 9.9
2017-Oct-23 12:56N 37°34' E 023°25'4 1.6
2017-Oct-23 10:26N 37°30' E 023°27'4 8.0
2017-Oct-23 10:00N 37°33' E 023°25'5 9.7
2017-Oct-23 09:30N 37°38' E 023°25'5 9.8
2017-Oct-23 09:00N 37°43' E 023°25'2 3.7
2017-Oct-23 08:30N 37°45' E 023°26'0 0.0
2017-Oct-23 06:54N 37°45' E 023°26'3 8.6
2017-Oct-23 06:30N 37°47' E 023°23'5 9.8
2017-Oct-23 05:59N 37°51' E 023°19'5 9.7
2017-Oct-23 05:30N 37°55' E 023°15'3 6.8
2017-Oct-23 05:00N 37°58' E 023°13'0 0.0
2017-Oct-23 04:31N 37°58' E 023°13'0 0.0
2017-Oct-22 16:24N 37°58' E 023°13'1 3.0
2017-Oct-22 16:01N 37°57' E 023°12'5 9.2
2017-Oct-22 15:31N 37°55' E 023°06'4 8.8
2017-Oct-22 15:01N 37°55' E 023°01'3 6.8
2017-Oct-22 14:30N 37°57' E 022°58'3 5.8
2017-Oct-22 14:00N 37°55' E 023°00'2 5.0
2017-Oct-22 13:31N 37°55' E 023°03'4 8.7
2017-Oct-22 13:00N 37°55' E 023°09'6 0.2
2017-Oct-21 09:06N 37°54' E 023°01'0 1.0
2017-Oct-21 09:00N 37°54' E 023°01'1 0.8
2017-Oct-21 07:55N 37°55' E 023°00'1 0.1
2017-Oct-20 16:10N 37°54' E 023°01'0 3.1
2017-Oct-20 16:00N 37°55' E 023°01'0 0.5
2017-Oct-20 15:16N 37°55' E 023°00'0 1.4
2017-Oct-20 15:01N 37°55' E 023°01'5 9.4
2017-Oct-20 14:30N 37°52' E 023°06'10 9.7
2017-Oct-20 13:30N 37°47' E 023°16'5 9.8
2017-Oct-20 13:00N 37°44' E 023°21'2 0.9
2017-Oct-20 11:05N 37°42' E 023°22'0 3.2
2017-Oct-20 11:00N 37°43' E 023°22'3 6.7
2017-Oct-20 10:30N 37°45' E 023°26'0 0.0
2017-Oct-20 08:16N 37°45' E 023°26'1 3.1
2017-Oct-20 08:00N 37°45' E 023°25'5 9.8
2017-Oct-20 07:30N 37°47' E 023°19'5 9.9
2017-Oct-20 07:00N 37°50' E 023°14'510.0
2017-Oct-20 06:30N 37°52' E 023°08'5 9.9
2017-Oct-20 06:01N 37°54' E 023°02'1 1.5
2017-Oct-20 05:12N 37°54' E 023°01'0 0.0
2017-Oct-19 19:29N 37°54' E 023°01'3 5.3
2017-Oct-19 19:00N 37°55' E 023°04'4 7.3
2017-Oct-19 18:30N 37°55' E 023°09'4 7.3
2017-Oct-19 17:59N 37°57' E 023°12'0 0.9
2017-Oct-19 17:29N 37°57' E 023°12'4 9.2
2017-Oct-19 17:00N 37°53' E 023°09'6 9.3
2017-Oct-19 16:25N 37°52' E 023°16'4 9.7
2017-Oct-19 16:00N 37°48' E 023°18'5 9.9
2017-Oct-19 15:30N 37°44' E 023°21'2 3.5
2017-Oct-19 15:00N 37°42' E 023°22'0 0.0
2017-Oct-19 14:30N 37°42' E 023°22'4 7.8
2017-Oct-19 13:59N 37°39' E 023°24'6 9.7
2017-Oct-19 13:20N 37°33' E 023°25'3 1.4
2017-Oct-19 11:12N 37°30' E 023°27'0 0.0
2017-Oct-19 10:57N 37°30' E 023°27'2 4.0
2017-Oct-19 10:30N 37°31' E 023°25'6 9.9
2017-Oct-19 09:52N 37°37' E 023°25'410.0
2017-Oct-19 09:30N 37°41' E 023°25'4 7.7
2017-Oct-19 09:00N 37°45' E 023°26'0 0.0
2017-Oct-19 06:56N 37°45' E 023°26'5 7.3
2017-Oct-19 06:19N 37°48' E 023°22'310.1
2017-Oct-19 06:00N 37°51' E 023°19'510.1
2017-Oct-19 05:30N 37°55' E 023°16'4 7.7
2017-Oct-19 05:00N 37°58' E 023°13'0 0.9
2017-Oct-19 04:30N 37°57' E 023°13'3 6.7
2017-Oct-19 04:00N 37°55' E 023°09'3 6.9
2017-Oct-19 03:30N 37°55' E 023°05'  

Dump ship's entire track history